createdAt,value
2018-01-17T00:01:16.781Z,9.43
2018-01-17T00:03:46.597Z,9.98
2018-01-17T00:06:16.367Z,10.40
2018-01-17T00:08:45.420Z,10.32
2018-01-17T00:11:14.393Z,10.05
2018-01-17T00:13:43.504Z,9.45
2018-01-17T00:16:13.285Z,11.27
2018-01-17T00:18:42.253Z,9.27
2018-01-17T00:21:11.236Z,9.63
2018-01-17T00:23:40.507Z,7.90
2018-01-17T00:26:09.496Z,9.73
2018-01-17T00:28:38.508Z,9.85
2018-01-17T00:31:07.501Z,8.98
2018-01-17T00:33:36.471Z,9.38
2018-01-17T00:36:06.960Z,10.88
2018-01-17T00:38:36.728Z,10.18
2018-01-17T00:41:05.691Z,9.07
2018-01-17T00:43:35.458Z,10.68
2018-01-17T00:46:04.474Z,9.95
2018-01-17T00:49:52.789Z,8.98
2018-01-17T00:52:21.770Z,9.05
2018-01-17T00:54:50.729Z,8.30
2018-01-17T00:57:20.473Z,9.07
2018-01-17T00:59:49.507Z,8.65
2018-01-17T01:02:18.477Z,8.70
2018-01-17T01:04:47.433Z,9.20
2018-01-17T01:07:16.438Z,10.88
2018-01-17T01:09:45.437Z,8.27
2018-01-17T01:12:14.405Z,9.05
2018-01-17T01:14:44.163Z,9.25
2018-01-17T01:17:13.104Z,8.45
2018-01-17T01:19:42.884Z,9.30
2018-01-17T01:22:11.823Z,8.07
2018-01-17T01:24:40.837Z,8.40
2018-01-17T01:27:11.852Z,8.60
2018-01-17T01:29:40.842Z,8.90
2018-01-17T01:32:09.807Z,8.48
2018-01-17T01:34:38.782Z,8.68
2018-01-17T01:37:07.773Z,8.45
2018-01-17T01:39:36.743Z,8.70
2018-01-17T01:42:05.780Z,8.85
2018-01-17T01:44:34.755Z,8.18
2018-01-17T01:47:03.722Z,7.55
2018-01-17T01:49:32.729Z,8.30
2018-01-17T01:52:03.629Z,7.90
2018-01-17T01:54:33.581Z,8.75
2018-01-17T01:57:02.545Z,8.23
2018-01-17T01:59:31.482Z,8.75
2018-01-17T02:02:00.465Z,7.90
2018-01-17T02:04:29.473Z,8.85
2018-01-17T02:06:59.198Z,8.75
2018-01-17T02:09:28.957Z,7.82
2018-01-17T02:11:57.948Z,9.18
2018-01-17T02:14:26.913Z,7.90
2018-01-17T02:16:55.860Z,7.85
2018-01-17T02:19:24.992Z,8.10
2018-01-17T02:21:54.735Z,8.65
2018-01-17T02:24:23.673Z,7.85
2018-01-17T02:26:53.084Z,8.20
2018-01-17T02:29:22.820Z,7.50
2018-01-17T02:31:51.809Z,8.10
2018-01-17T02:34:20.817Z,7.72
2018-01-17T02:36:49.799Z,7.25
2018-01-17T02:39:18.786Z,6.97
2018-01-17T02:41:47.782Z,7.72
2018-01-17T02:44:16.809Z,7.95
2018-01-17T02:46:45.780Z,6.93
2018-01-17T02:49:14.767Z,6.25
2018-01-17T02:51:43.726Z,8.05
2018-01-17T02:54:13.474Z,6.87
2018-01-17T02:56:42.420Z,7.22
2018-01-17T02:59:11.385Z,7.45
2018-01-17T03:01:40.383Z,6.93
2018-01-17T03:04:09.336Z,7.47
2018-01-17T03:06:38.309Z,6.85
2018-01-17T03:09:08.034Z,7.22
2018-01-17T03:11:37.012Z,6.47
2018-01-17T03:14:06.743Z,7.72
2018-01-17T03:16:35.737Z,6.53
2018-01-17T03:19:04.702Z,6.40
2018-01-17T03:21:34.436Z,6.07
2018-01-17T03:24:03.381Z,6.28
2018-01-17T03:26:32.366Z,5.93
2018-01-17T03:29:01.522Z,5.97
2018-01-17T03:31:30.489Z,5.07
2018-01-17T03:34:00.289Z,5.47
2018-01-17T03:36:29.212Z,6.90
2018-01-17T03:38:58.205Z,5.70
2018-01-17T03:41:27.161Z,6.60
2018-01-17T03:43:56.125Z,6.72
2018-01-17T03:46:25.090Z,7.20
2018-01-17T03:48:54.060Z,5.32
2018-01-17T03:51:23.829Z,5.20
2018-01-17T03:53:52.872Z,5.70
2018-01-17T03:56:21.850Z,4.95
2018-01-17T03:58:51.585Z,3.37
2018-01-17T04:01:20.578Z,3.80
2018-01-17T04:03:49.600Z,4.00
2018-01-17T04:06:21.458Z,5.15
2018-01-17T04:08:50.575Z,4.93
2018-01-17T04:11:19.541Z,6.03
2018-01-17T04:13:48.506Z,6.82
2018-01-17T04:16:17.468Z,5.85
2018-01-17T04:18:46.947Z,7.03
2018-01-17T04:21:17.594Z,6.05
2018-01-17T04:23:46.599Z,6.57
2018-01-17T04:26:15.589Z,4.40
2018-01-17T04:28:44.594Z,4.10
2018-01-17T04:31:16.142Z,5.53
2018-01-17T04:33:45.233Z,3.67
2018-01-17T04:36:14.978Z,1.00
2018-01-17T04:38:43.926Z,0.90
2018-01-17T04:41:12.877Z,0.70
2018-01-17T04:43:42.594Z,0.70
2018-01-17T04:46:11.590Z,0.70
2018-01-17T04:48:40.538Z,0.68
2018-01-17T04:51:10.307Z,0.60
2018-01-17T04:53:39.241Z,0.60
2018-01-17T04:56:08.988Z,0.50
2018-01-17T04:58:38.029Z,0.65
2018-01-17T05:01:07.801Z,0.50
2018-01-17T05:03:36.754Z,0.50
2018-01-17T05:06:05.696Z,0.70
2018-01-17T05:08:35.421Z,0.60
2018-01-17T05:11:04.354Z,0.60
2018-01-17T05:13:33.333Z,0.70
2018-01-17T05:16:03.086Z,0.80
2018-01-17T05:18:32.045Z,0.75
2018-01-17T05:21:00.998Z,1.00
2018-01-17T05:23:30.013Z,1.00
2018-01-17T05:25:59.740Z,1.45
2018-01-17T05:28:28.733Z,1.35
2018-01-17T05:30:57.708Z,1.10
2018-01-17T05:33:27.495Z,1.35
2018-01-17T05:35:56.416Z,0.90
2018-01-17T05:38:26.181Z,1.25
2018-01-17T05:40:55.903Z,1.10
2018-01-17T05:43:24.911Z,1.37
2018-01-17T05:45:53.904Z,1.60
2018-01-17T05:48:22.850Z,1.42
2018-01-17T05:50:51.867Z,1.77
2018-01-17T05:53:20.885Z,1.50
2018-01-17T05:55:50.102Z,1.70
2018-01-17T05:58:19.873Z,2.33
2018-01-17T06:00:48.921Z,1.75
2018-01-17T06:03:17.933Z,2.10
2018-01-17T06:05:46.864Z,2.25
2018-01-17T06:08:16.713Z,2.50
2018-01-17T06:10:45.730Z,2.95
2018-01-17T06:13:15.502Z,2.55
2018-01-17T06:15:45.294Z,2.70
2018-01-17T06:18:14.323Z,2.53
2018-01-17T06:20:44.096Z,2.30
2018-01-17T06:23:13.111Z,2.50
2018-01-17T06:25:42.826Z,2.22
2018-01-17T06:28:13.191Z,2.40
2018-01-17T06:30:42.148Z,3.10
2018-01-17T06:33:12.160Z,2.45
2018-01-17T06:35:42.166Z,2.72
2018-01-17T06:38:12.062Z,2.25
2018-01-17T06:40:41.086Z,2.20
2018-01-17T06:43:10.900Z,2.12
2018-01-17T06:45:40.654Z,3.37
2018-01-17T06:48:09.655Z,2.58
2018-01-17T06:50:38.638Z,2.95
2018-01-17T06:53:08.080Z,2.97
2018-01-17T06:55:37.848Z,3.28
2018-01-17T06:58:06.883Z,2.80
2018-01-17T07:00:36.630Z,4.35
2018-01-17T07:03:05.614Z,3.80
2018-01-17T07:05:34.691Z,3.40
2018-01-17T07:08:04.507Z,3.75
2018-01-17T07:54:15.684Z,6.55
2018-01-17T07:56:45.083Z,6.70
2018-01-17T07:59:15.001Z,6.40
2018-01-17T08:01:44.034Z,6.72
2018-01-17T08:04:13.061Z,6.50
2018-01-17T08:06:42.865Z,6.60
2018-01-17T08:09:11.932Z,5.68
2018-01-17T08:11:41.127Z,6.18
2018-01-17T08:14:10.546Z,7.90
2018-01-17T08:16:39.784Z,5.43
2018-01-17T08:19:08.933Z,4.43
2018-01-17T08:21:37.973Z,5.37
2018-01-17T08:24:07.006Z,5.75
2018-01-17T08:26:36.048Z,5.07
2018-01-17T08:29:05.116Z,5.43
2018-01-17T08:31:34.204Z,5.97
2018-01-17T08:34:03.288Z,5.70
2018-01-17T08:36:32.399Z,5.12
2018-01-17T08:39:01.534Z,5.78
2018-01-17T08:41:30.670Z,4.85
2018-01-17T08:43:59.728Z,5.07
2018-01-17T08:46:29.521Z,4.43
2018-01-17T08:48:59.344Z,5.40
2018-01-17T08:51:29.681Z,6.00
2018-01-17T08:54:03.023Z,4.80
2018-01-17T08:56:33.218Z,4.95
2018-01-17T08:59:06.100Z,5.45
2018-01-17T09:01:42.229Z,6.28
2018-01-17T09:04:12.031Z,6.20
2018-01-17T09:06:41.138Z,5.25
2018-01-17T09:09:11.020Z,4.80
2018-01-17T09:11:40.297Z,5.85
2018-01-17T09:14:09.361Z,6.30
2018-01-17T09:16:38.419Z,5.80
2018-01-17T09:19:07.769Z,5.62
2018-01-17T09:21:37.657Z,5.60
2018-01-17T09:24:06.757Z,6.85
2018-01-17T09:26:35.996Z,4.70
2018-01-17T09:29:06.070Z,5.60
2018-01-17T09:31:35.889Z,5.60
2018-01-17T09:34:05.147Z,5.10
2018-01-17T09:36:34.222Z,5.45
2018-01-17T09:39:03.242Z,5.82
2018-01-17T09:41:32.346Z,6.50
2018-01-17T09:44:01.346Z,5.90
2018-01-17T09:46:39.955Z,5.00
2018-01-17T09:49:09.000Z,6.35
2018-01-17T09:51:37.986Z,5.32
2018-01-17T09:54:07.042Z,5.80
2018-01-17T09:56:36.201Z,6.43
2018-01-17T09:59:05.205Z,6.80
2018-01-17T10:01:38.213Z,5.80
2018-01-17T10:07:39.050Z,5.53
2018-01-17T10:10:08.861Z,6.32
2018-01-17T10:12:37.844Z,5.72
2018-01-17T10:15:06.876Z,5.60
2018-01-17T10:17:35.898Z,5.40
2018-01-17T10:20:06.688Z,5.90
2018-01-17T10:22:40.460Z,5.90
2018-01-17T10:25:09.482Z,6.00
2018-01-17T10:27:38.588Z,6.00
2018-01-17T10:30:08.430Z,5.55
2018-01-17T10:32:44.748Z,5.50
2018-01-17T10:35:13.991Z,5.22
2018-01-17T10:37:43.804Z,4.90
2018-01-17T10:40:13.549Z,5.18
2018-01-17T10:42:42.706Z,4.35
2018-01-17T10:45:12.627Z,4.40
2018-01-17T10:47:41.776Z,4.82
2018-01-17T10:50:11.100Z,3.83
2018-01-17T10:52:40.250Z,4.28
2018-01-17T10:55:09.423Z,4.55
2018-01-17T10:57:38.591Z,3.50
2018-01-17T11:00:07.754Z,3.30
2018-01-17T11:02:36.854Z,3.30
2018-01-17T11:05:06.163Z,2.90
2018-01-17T11:07:35.408Z,3.30
2018-01-17T11:10:05.344Z,3.75
2018-01-17T11:12:34.499Z,3.35
2018-01-17T11:15:03.625Z,4.20
2018-01-17T11:17:32.852Z,4.32
2018-01-17T11:20:02.553Z,4.03
2018-01-17T11:22:31.643Z,4.95
2018-01-17T11:25:00.688Z,5.65
2018-01-17T11:27:29.815Z,5.53
2018-01-17T11:29:58.909Z,5.40
2018-01-17T11:32:28.677Z,5.60
2018-01-17T11:34:58.535Z,6.07
2018-01-17T11:37:28.372Z,6.35
2018-01-17T11:39:57.416Z,6.05
2018-01-17T11:42:27.285Z,6.85
2018-01-17T11:44:56.312Z,6.60
2018-01-17T11:47:25.353Z,6.75
2018-01-17T11:49:54.474Z,6.25
2018-01-17T11:52:23.596Z,7.10
2018-01-17T11:54:52.719Z,7.53
2018-01-17T11:57:26.072Z,7.25
2018-01-17T11:59:55.185Z,7.62
2018-01-17T12:02:25.032Z,6.90
2018-01-17T12:04:54.116Z,7.78
2018-01-17T12:07:24.020Z,7.40
2018-01-17T12:09:53.162Z,6.20
2018-01-17T12:12:23.155Z,6.00
2018-01-17T12:14:53.058Z,6.03
2018-01-17T12:17:23.288Z,6.75
2018-01-17T12:19:52.379Z,5.40
2018-01-17T12:22:22.806Z,6.47
2018-01-17T12:24:52.031Z,5.90
2018-01-17T12:27:22.634Z,6.12
2018-01-17T12:33:23.775Z,5.35
2018-01-17T12:35:53.547Z,5.82
2018-01-17T12:38:22.584Z,5.43
2018-01-17T12:40:52.485Z,4.90
2018-01-17T12:43:22.418Z,5.35
2018-01-17T12:49:23.564Z,4.18
2018-01-17T12:51:52.636Z,4.62
2018-01-17T12:54:21.658Z,3.90
2018-01-17T12:56:50.707Z,4.68
2018-01-17T12:59:19.747Z,4.62
2018-01-17T13:01:49.086Z,4.60
2018-01-17T13:04:18.881Z,4.62
2018-01-17T13:06:48.802Z,4.82
2018-01-17T13:09:18.612Z,4.40
2018-01-17T13:11:47.686Z,4.03
2018-01-17T13:14:16.966Z,3.60
2018-01-17T13:16:46.791Z,4.75
2018-01-17T13:19:17.273Z,4.15
2018-01-17T13:21:52.433Z,4.05
2018-01-17T13:24:21.482Z,4.25
2018-01-17T13:26:51.358Z,4.00
2018-01-17T13:29:20.384Z,4.00
2018-01-17T13:31:49.687Z,3.67
2018-01-17T13:34:18.743Z,3.30
2018-01-17T13:36:48.483Z,4.10
2018-01-17T13:39:18.298Z,3.75
2018-01-17T13:41:48.267Z,3.78
2018-01-17T13:44:17.337Z,3.72
2018-01-17T13:46:46.327Z,3.95
2018-01-17T13:49:16.248Z,3.55
2018-01-17T13:51:46.028Z,4.05
2018-01-17T13:54:16.230Z,4.60
2018-01-17T13:56:46.054Z,4.40
2018-01-17T14:00:17.702Z,3.75
2018-01-17T14:02:46.722Z,4.20
2018-01-17T14:05:16.488Z,4.37
2018-01-17T14:07:45.580Z,3.65
2018-01-17T14:10:14.804Z,4.20
2018-01-17T14:12:44.273Z,4.00
2018-01-17T14:15:13.395Z,3.92
2018-01-17T14:17:42.498Z,3.92
2018-01-17T14:20:12.335Z,4.22
2018-01-17T14:22:41.518Z,3.92
2018-01-17T14:25:11.050Z,4.20
2018-01-17T14:27:40.130Z,4.28
2018-01-17T14:30:10.128Z,4.18
2018-01-17T14:32:39.210Z,4.45
2018-01-17T14:35:08.339Z,4.97
2018-01-17T14:37:37.394Z,4.55
2018-01-17T14:40:06.520Z,4.50
2018-01-17T14:42:35.548Z,4.50
2018-01-17T14:45:04.653Z,5.07
2018-01-17T14:47:36.279Z,5.90
2018-01-17T14:50:06.119Z,5.35
2018-01-17T14:52:35.214Z,5.25
2018-01-17T14:55:05.060Z,4.85
2018-01-17T14:57:34.265Z,5.30
2018-01-17T15:00:04.384Z,5.10
2018-01-17T15:02:33.514Z,4.75
2018-01-17T15:05:04.350Z,4.10
2018-01-17T15:07:33.496Z,5.37
2018-01-17T15:10:02.635Z,5.28
2018-01-17T15:12:32.426Z,5.18
2018-01-17T15:15:01.578Z,5.32
2018-01-17T15:17:31.580Z,5.20
2018-01-17T15:20:00.817Z,6.28
2018-01-17T15:22:29.956Z,5.62
2018-01-17T15:24:59.104Z,4.40
2018-01-17T15:27:29.055Z,4.20
2018-01-17T15:29:59.007Z,3.87
2018-01-17T15:32:28.158Z,4.47
2018-01-17T15:34:57.996Z,4.80
2018-01-17T15:37:27.064Z,4.90
2018-01-17T15:39:56.360Z,4.50
2018-01-17T15:42:25.463Z,5.80
2018-01-17T15:44:54.572Z,4.72
2018-01-17T15:47:24.500Z,5.50
2018-01-17T15:49:54.453Z,4.03
2018-01-17T15:52:23.493Z,4.65
2018-01-17T15:54:52.574Z,4.03
2018-01-17T15:57:21.672Z,3.12
2018-01-17T15:59:50.766Z,2.40
2018-01-17T16:02:19.868Z,1.90
2018-01-17T16:04:49.024Z,1.95
2018-01-17T16:07:18.895Z,2.28
2018-01-17T16:09:48.711Z,2.33
2018-01-17T16:12:18.506Z,2.30
2018-01-17T16:14:47.567Z,2.78
2018-01-17T16:17:16.652Z,2.87
2018-01-17T16:19:45.778Z,3.28
2018-01-17T16:22:18.774Z,3.45
2018-01-17T16:24:48.700Z,3.30
2018-01-17T16:27:19.390Z,3.67
2018-01-17T16:29:48.511Z,3.95
2018-01-17T16:32:17.696Z,3.60
2018-01-17T16:34:46.794Z,4.20
2018-01-17T16:37:15.918Z,4.57
2018-01-17T16:39:45.708Z,4.55
2018-01-17T16:42:14.938Z,4.72
2018-01-17T16:44:44.825Z,4.75
2018-01-17T16:47:13.953Z,4.60
2018-01-17T16:49:43.836Z,4.68
2018-01-17T16:52:12.849Z,4.60
2018-01-17T16:54:42.709Z,5.30
2018-01-17T16:57:11.842Z,5.30
2018-01-17T16:59:41.248Z,6.20
